createdAt,value
2022-08-16T00:01:26.524Z,3.77
2022-08-16T00:04:05.149Z,3.60
2022-08-16T00:06:34.233Z,4.50
2022-08-16T00:09:06.863Z,3.90
2022-08-16T00:11:35.869Z,3.77
2022-08-16T00:14:09.166Z,3.60
2022-08-16T00:17:00.824Z,3.87
2022-08-16T00:19:28.864Z,4.00
2022-08-16T00:22:13.800Z,3.63
2022-08-16T00:24:46.778Z,3.97
2022-08-16T00:27:17.441Z,3.53
2022-08-16T00:29:46.088Z,4.10
2022-08-16T00:32:18.173Z,3.97
2022-08-16T00:34:52.897Z,3.83
2022-08-16T00:37:56.330Z,3.50
2022-08-16T00:40:34.604Z,3.20
2022-08-16T00:43:12.030Z,3.73
2022-08-16T00:45:58.081Z,3.60
2022-08-16T00:48:44.187Z,4.20
2022-08-16T00:51:17.497Z,4.00
2022-08-16T00:53:46.982Z,4.10
2022-08-16T00:56:55.872Z,3.33
2022-08-16T00:59:11.255Z,3.20
2022-08-16T01:01:45.153Z,3.80
2022-08-16T01:04:29.585Z,4.20
2022-08-16T01:07:02.066Z,4.00
2022-08-16T01:09:33.826Z,3.80
2022-08-16T01:12:08.768Z,4.00
2022-08-16T01:14:45.223Z,4.33
2022-08-16T01:17:17.232Z,4.00
2022-08-16T01:19:49.766Z,3.83
2022-08-16T01:22:49.884Z,4.00
2022-08-16T01:25:22.305Z,4.03
2022-08-16T01:27:54.509Z,3.90
2022-08-16T01:30:26.730Z,3.87
2022-08-16T01:33:02.316Z,4.23
2022-08-16T01:35:52.607Z,4.13
2022-08-16T01:38:28.039Z,4.10
2022-08-16T01:41:01.890Z,4.40
2022-08-16T01:43:32.361Z,4.60
2022-08-16T01:46:37.978Z,3.57
2022-08-16T01:48:56.309Z,3.97
2022-08-16T01:51:27.120Z,4.20
2022-08-16T01:53:57.679Z,4.63
2022-08-16T01:56:32.976Z,4.07
2022-08-16T01:59:06.966Z,4.57
2022-08-16T02:01:49.754Z,3.73
2022-08-16T02:04:40.026Z,4.67
2022-08-16T02:07:13.479Z,4.20
2022-08-16T02:09:42.569Z,4.00
2022-08-16T02:12:50.481Z,3.70
2022-08-16T02:15:25.248Z,4.03
2022-08-16T02:17:55.410Z,4.63
2022-08-16T02:20:26.494Z,4.00
2022-08-16T02:22:57.532Z,3.97
2022-08-16T02:25:52.235Z,4.40
2022-08-16T02:28:19.178Z,4.13
2022-08-16T02:30:51.049Z,3.90
2022-08-16T02:33:24.871Z,3.90
2022-08-16T02:36:14.626Z,4.50
2022-08-16T02:39:01.872Z,4.13
2022-08-16T02:41:30.186Z,4.20
2022-08-16T02:44:01.224Z,4.30
2022-08-16T02:46:30.170Z,4.13
2022-08-16T02:49:03.145Z,4.07
2022-08-16T02:51:35.662Z,4.40
2022-08-16T02:54:05.301Z,4.40
2022-08-16T02:56:35.668Z,3.93
2022-08-16T02:59:11.513Z,4.10
2022-08-16T03:01:43.320Z,3.90
2022-08-16T03:04:41.132Z,4.47
2022-08-16T03:07:10.715Z,4.00
2022-08-16T03:09:44.632Z,4.33
2022-08-16T03:12:17.948Z,4.23
2022-08-16T03:14:49.383Z,4.20
2022-08-16T03:17:21.948Z,4.50
2022-08-16T03:20:02.396Z,4.50
2022-08-16T03:22:38.996Z,4.30
2022-08-16T03:25:17.350Z,4.20
2022-08-16T03:27:56.810Z,4.00
2022-08-16T03:30:32.916Z,4.90
2022-08-16T03:33:05.569Z,4.33
2022-08-16T03:35:41.863Z,4.57
2022-08-16T03:38:34.029Z,4.37
2022-08-16T03:41:25.760Z,4.73
2022-08-16T03:44:00.021Z,3.90
2022-08-16T03:46:47.749Z,4.57
2022-08-16T03:49:36.505Z,4.20
2022-08-16T03:52:07.808Z,4.07
2022-08-16T03:54:38.173Z,4.50
2022-08-16T03:57:22.378Z,4.10
2022-08-16T03:59:51.547Z,5.00
2022-08-16T04:02:31.564Z,4.03
2022-08-16T04:05:04.113Z,4.97
2022-08-16T04:07:33.787Z,5.00
2022-08-16T04:10:35.550Z,4.40
2022-08-16T04:12:59.426Z,4.57
2022-08-16T04:15:30.925Z,4.30
2022-08-16T04:18:21.089Z,5.10
2022-08-16T04:20:51.307Z,4.40
2022-08-16T04:23:23.575Z,4.40
2022-08-16T04:25:55.053Z,4.40
2022-08-16T04:28:52.068Z,4.70
2022-08-16T04:31:14.005Z,4.47
2022-08-16T04:33:51.201Z,4.63
2022-08-16T04:36:23.125Z,4.40
2022-08-16T04:38:52.565Z,4.77
2022-08-16T04:41:32.892Z,5.27
2022-08-16T04:44:32.699Z,4.73
2022-08-16T04:47:02.706Z,5.13
2022-08-16T04:49:43.598Z,4.57
2022-08-16T04:52:34.213Z,4.37
2022-08-16T04:55:06.296Z,4.70
2022-08-16T04:57:37.691Z,4.67
2022-08-16T05:00:30.424Z,5.27
2022-08-16T05:03:02.640Z,4.87
2022-08-16T05:05:55.395Z,4.90
2022-08-16T05:08:31.080Z,4.83
2022-08-16T05:11:08.500Z,5.13
2022-08-16T05:13:42.109Z,5.20
2022-08-16T05:16:21.375Z,5.47
2022-08-16T05:18:58.931Z,5.20
2022-08-16T05:21:35.965Z,5.33
2022-08-16T05:24:09.087Z,5.73
2022-08-16T05:26:43.031Z,5.67
2022-08-16T05:29:14.712Z,5.37
2022-08-16T05:31:57.074Z,5.33
2022-08-16T05:34:25.382Z,5.17
2022-08-16T05:36:58.813Z,5.27
2022-08-16T05:39:37.626Z,5.10
2022-08-16T05:42:10.369Z,5.53
2022-08-16T05:44:41.332Z,4.87
2022-08-16T05:47:15.293Z,4.63
2022-08-16T05:49:46.404Z,4.07
2022-08-16T05:52:21.512Z,4.13
2022-08-16T05:55:01.062Z,3.87
2022-08-16T05:57:34.370Z,4.40
2022-08-16T06:00:08.796Z,4.13
2022-08-16T06:02:47.424Z,4.70
2022-08-16T06:05:41.417Z,4.33
2022-08-16T06:08:32.059Z,4.60
2022-08-16T06:11:10.157Z,4.47
2022-08-16T06:13:42.951Z,4.40
2022-08-16T06:16:18.316Z,4.20
2022-08-16T06:18:49.269Z,4.30
2022-08-16T06:21:22.928Z,4.30
2022-08-16T06:24:01.254Z,5.10
2022-08-16T06:26:36.871Z,4.90
2022-08-16T06:29:07.694Z,4.87
2022-08-16T06:31:46.864Z,4.60
2022-08-16T06:34:54.890Z,4.57
2022-08-16T06:37:10.331Z,4.63
2022-08-16T06:39:49.663Z,4.22
2022-08-16T06:42:47.562Z,4.82
2022-08-16T06:45:47.605Z,5.40
2022-08-16T06:48:33.067Z,5.10
2022-08-16T06:51:04.719Z,6.07
2022-08-16T06:53:36.654Z,5.28
2022-08-16T06:56:14.407Z,5.47
2022-08-16T06:59:10.251Z,4.88
2022-08-16T07:01:53.439Z,5.13
2022-08-16T07:04:33.052Z,5.10
2022-08-16T07:07:14.683Z,4.95
2022-08-16T07:09:44.169Z,4.68
2022-08-16T07:12:15.424Z,4.45
2022-08-16T07:14:47.944Z,4.80
2022-08-16T07:17:19.647Z,4.05
2022-08-16T07:20:29.625Z,3.70
2022-08-16T07:22:59.003Z,4.38
2022-08-16T07:25:42.374Z,4.07
2022-08-16T07:28:20.700Z,4.20
2022-08-16T07:30:50.458Z,4.20
2022-08-16T07:33:52.712Z,4.75
2022-08-16T07:36:21.879Z,4.50
2022-08-16T07:38:51.781Z,3.95
2022-08-16T07:41:21.215Z,3.67
2022-08-16T07:44:03.844Z,3.90
2022-08-16T07:46:46.093Z,3.60
2022-08-16T07:49:21.185Z,4.28
2022-08-16T07:51:50.126Z,3.72
2022-08-16T07:54:32.436Z,3.60
2022-08-16T07:57:11.813Z,4.10
2022-08-16T07:59:45.959Z,4.07
2022-08-16T08:02:20.281Z,3.80
2022-08-16T08:04:54.110Z,4.50
2022-08-16T08:07:27.642Z,4.00
2022-08-16T08:09:57.465Z,4.43
2022-08-16T08:12:31.857Z,4.10
2022-08-16T08:15:09.704Z,4.38
2022-08-16T08:17:43.319Z,3.88
2022-08-16T08:20:20.854Z,4.50
2022-08-16T08:23:00.902Z,4.13
2022-08-16T08:25:55.172Z,4.65
2022-08-16T08:28:26.721Z,4.20
2022-08-16T08:31:03.984Z,4.53
2022-08-16T08:33:38.293Z,4.28
2022-08-16T08:36:22.014Z,4.43
2022-08-16T08:38:53.542Z,4.75
2022-08-16T08:41:28.472Z,4.80
2022-08-16T08:43:58.452Z,4.40
2022-08-16T08:46:29.218Z,4.10
2022-08-16T08:49:08.735Z,4.72
2022-08-16T08:51:42.409Z,4.93
2022-08-16T08:54:20.570Z,4.00
2022-08-16T08:56:53.007Z,4.68
2022-08-16T08:59:28.919Z,5.28
2022-08-16T09:02:03.215Z,4.15
2022-08-16T09:04:40.049Z,4.97
2022-08-16T09:07:08.896Z,5.07
2022-08-16T09:09:41.166Z,4.53
2022-08-16T09:12:35.900Z,4.88
2022-08-16T09:15:13.719Z,5.15
2022-08-16T09:17:51.385Z,4.28
2022-08-16T09:20:24.410Z,5.18
2022-08-16T09:22:57.354Z,4.40
2022-08-16T09:25:55.785Z,4.80
2022-08-16T09:29:13.471Z,5.13
2022-08-16T09:31:20.308Z,4.90
2022-08-16T09:33:51.793Z,4.40
2022-08-16T09:36:32.061Z,4.05
2022-08-16T09:39:03.473Z,4.15
2022-08-16T09:41:32.583Z,4.25
2022-08-16T09:45:10.846Z,4.38
2022-08-16T09:46:57.476Z,4.70
2022-08-16T09:49:37.294Z,4.82
2022-08-16T09:52:06.279Z,4.43
2022-08-16T09:54:39.079Z,3.97
2022-08-16T09:57:13.283Z,4.53
2022-08-16T09:59:42.299Z,3.92
2022-08-16T10:02:23.059Z,3.97
2022-08-16T10:04:58.054Z,3.90
2022-08-16T10:07:26.857Z,3.22
2022-08-16T10:10:13.453Z,3.70
2022-08-16T10:13:05.043Z,3.50
2022-08-16T10:15:34.393Z,3.60
2022-08-16T10:18:56.125Z,4.00
2022-08-16T10:20:53.122Z,3.30
2022-08-16T10:23:26.024Z,3.88
2022-08-16T10:27:17.691Z,3.72
2022-08-16T10:28:45.578Z,3.67
2022-08-16T10:31:45.595Z,4.20
2022-08-16T10:34:30.701Z,4.13
2022-08-16T10:36:58.394Z,4.00
2022-08-16T10:39:26.969Z,3.78
2022-08-16T10:42:09.812Z,4.25
2022-08-16T10:44:38.121Z,4.03
2022-08-16T10:47:07.400Z,4.18
2022-08-16T10:49:37.112Z,4.05
2022-08-16T10:52:18.225Z,4.15
2022-08-16T10:57:36.045Z,4.70
2022-08-16T11:00:21.256Z,4.30
2022-08-16T11:03:00.463Z,4.38
2022-08-16T11:08:28.312Z,4.72
2022-08-16T11:11:12.964Z,4.85
2022-08-16T11:14:11.223Z,5.00
2022-08-16T11:19:26.255Z,4.93
2022-08-16T11:22:39.691Z,4.03
2022-08-16T11:25:11.496Z,4.32
2022-08-16T11:27:36.604Z,4.40
2022-08-16T11:30:09.161Z,5.10
2022-08-16T11:32:41.139Z,4.75
2022-08-16T11:35:14.984Z,4.72
2022-08-16T11:40:40.834Z,4.53
2022-08-16T11:43:16.894Z,5.00
2022-08-16T11:45:54.245Z,4.25
2022-08-16T11:48:24.932Z,4.40
2022-08-16T11:50:53.276Z,4.35
2022-08-16T11:53:22.234Z,3.72
2022-08-16T11:55:54.983Z,4.03
2022-08-16T11:58:24.759Z,4.05
2022-08-16T12:00:56.070Z,4.50
2022-08-16T12:03:34.744Z,4.63
2022-08-16T12:06:10.892Z,3.75
2022-08-16T12:08:40.330Z,3.92
2022-08-16T12:11:11.492Z,3.88
2022-08-16T12:13:40.767Z,3.63
2022-08-16T12:16:10.468Z,4.03
2022-08-16T12:18:40.611Z,4.45
2022-08-16T12:21:09.826Z,3.25
2022-08-16T12:23:39.344Z,3.53
2022-08-16T12:26:10.398Z,4.15
2022-08-16T12:28:54.600Z,3.90
2022-08-16T12:31:25.257Z,3.70
2022-08-16T12:33:54.155Z,4.10
2022-08-16T12:36:23.814Z,4.10
2022-08-16T12:38:53.081Z,3.58
2022-08-16T12:41:25.024Z,3.67
2022-08-16T12:43:56.900Z,3.78
2022-08-16T12:46:27.467Z,4.00
2022-08-16T12:48:58.346Z,3.60
2022-08-16T12:51:33.034Z,3.70
2022-08-16T12:54:20.601Z,4.25
2022-08-16T12:56:50.478Z,3.80
2022-08-16T12:59:22.008Z,3.72
2022-08-16T13:01:58.316Z,3.67
2022-08-16T13:04:31.396Z,3.90
2022-08-16T13:07:04.613Z,3.65
2022-08-16T13:09:45.661Z,3.97
2022-08-16T13:12:20.990Z,3.60
2022-08-16T13:14:52.199Z,3.65
2022-08-16T13:17:26.249Z,3.58
2022-08-16T13:20:07.002Z,3.65
2022-08-16T13:22:36.642Z,3.50
2022-08-16T13:25:07.156Z,3.75
2022-08-16T13:28:03.206Z,3.63
2022-08-16T13:30:36.221Z,3.72
2022-08-16T13:33:12.235Z,3.30
2022-08-16T13:35:44.034Z,3.42
2022-08-16T13:38:24.331Z,3.95
2022-08-16T13:40:56.068Z,3.60
2022-08-16T13:43:26.680Z,2.97
2022-08-16T13:45:57.424Z,3.28
2022-08-16T13:48:37.042Z,3.70
2022-08-16T13:51:16.605Z,3.35
2022-08-16T13:53:54.750Z,3.72
2022-08-16T13:56:38.215Z,3.67
2022-08-16T13:59:20.027Z,4.35
2022-08-16T14:01:55.641Z,3.47
2022-08-16T14:04:26.665Z,4.00
2022-08-16T14:06:56.800Z,3.40
2022-08-16T14:09:27.011Z,3.60
2022-08-16T14:11:58.097Z,4.25
2022-08-16T14:14:30.141Z,4.32
2022-08-16T14:17:02.928Z,3.72
2022-08-16T14:19:31.761Z,3.38
2022-08-16T14:22:15.092Z,3.60
2022-08-16T14:24:47.512Z,3.70
2022-08-16T14:27:17.982Z,3.28
2022-08-16T14:29:49.305Z,3.67
2022-08-16T14:32:27.230Z,3.75
2022-08-16T14:35:04.141Z,3.60
2022-08-16T14:37:32.781Z,3.85
2022-08-16T14:40:03.975Z,3.45
2022-08-16T14:42:36.710Z,3.65
2022-08-16T14:45:06.602Z,3.95
2022-08-16T14:47:38.394Z,3.90
2022-08-16T14:50:09.409Z,3.95
2022-08-16T14:52:56.053Z,4.00
2022-08-16T14:55:26.037Z,3.83
2022-08-16T14:57:55.178Z,3.97
2022-08-16T15:00:33.270Z,3.92
2022-08-16T15:03:09.485Z,3.50
2022-08-16T15:05:39.904Z,4.03
2022-08-16T15:08:08.586Z,4.43
2022-08-16T15:10:42.751Z,3.67
2022-08-16T15:13:15.384Z,3.70
2022-08-16T15:15:51.499Z,3.55
2022-08-16T15:18:31.518Z,4.00
2022-08-16T15:21:01.921Z,4.00
2022-08-16T15:23:33.991Z,4.18
2022-08-16T15:26:08.265Z,3.47
2022-08-16T15:28:38.427Z,3.85
2022-08-16T15:31:09.231Z,3.72
2022-08-16T15:33:45.413Z,3.53
2022-08-16T15:36:21.427Z,3.83
2022-08-16T15:38:57.786Z,4.03
2022-08-16T15:42:03.359Z,3.80
2022-08-16T15:44:51.877Z,4.00
2022-08-16T15:47:25.093Z,3.97
2022-08-16T15:49:57.936Z,4.70
2022-08-16T15:52:30.266Z,4.38
2022-08-16T15:55:13.353Z,4.15
2022-08-16T15:57:51.302Z,4.18
2022-08-16T16:00:21.246Z,3.90
2022-08-16T16:02:50.087Z,4.45
2022-08-16T16:05:20.132Z,4.40
2022-08-16T16:07:55.652Z,3.80
2022-08-16T16:10:29.589Z,3.97
2022-08-16T16:13:00.899Z,3.83
2022-08-16T16:15:31.999Z,4.03
2022-08-16T16:18:05.302Z,4.28
2022-08-16T16:20:43.903Z,3.95
2022-08-16T16:23:14.669Z,4.75
2022-08-16T16:25:44.843Z,4.07
2022-08-16T16:29:06.100Z,3.95
2022-08-16T16:31:06.415Z,4.20
2022-08-16T16:33:38.502Z,4.10
2022-08-16T16:36:12.679Z,3.70
2022-08-16T16:38:45.364Z,4.80
2022-08-16T16:41:14.858Z,5.10
2022-08-16T16:43:45.657Z,4.13
2022-08-16T16:46:39.242Z,4.68
2022-08-16T16:49:07.446Z,4.85
2022-08-16T16:51:44.472Z,4.90
2022-08-16T16:54:14.017Z,4.68
2022-08-16T16:56:58.760Z,4.93
2022-08-16T16:59:28.061Z,4.72
2022-08-16T17:02:38.238Z,4.82
2022-08-16T17:04:47.316Z,5.07
2022-08-16T17:07:17.391Z,5.10
2022-08-16T17:09:47.460Z,4.90
2022-08-16T17:12:24.974Z,4.90
2022-08-16T17:15:07.557Z,4.45
2022-08-16T17:17:59.431Z,5.35
2022-08-16T17:20:27.463Z,5.18
2022-08-16T17:22:59.293Z,4.47
2022-08-16T17:25:36.431Z,5.05
2022-08-16T17:28:58.774Z,4.70
2022-08-16T17:30:55.116Z,4.35
2022-08-16T17:33:23.359Z,4.30
2022-08-16T17:35:56.122Z,4.50
2022-08-16T17:38:33.031Z,4.50
2022-08-16T17:41:18.245Z,4.07
2022-08-16T17:43:46.870Z,4.68
2022-08-16T17:46:50.089Z,5.22
2022-08-16T17:49:06.595Z,4.45
2022-08-16T17:51:35.324Z,4.28
2022-08-16T17:54:05.150Z,5.28
2022-08-16T17:56:34.573Z,4.68
2022-08-16T17:59:03.162Z,4.78
2022-08-16T18:01:31.781Z,4.82
2022-08-16T18:04:08.300Z,4.57
2022-08-16T18:06:38.167Z,5.57
2022-08-16T18:09:09.081Z,5.00
2022-08-16T18:11:43.150Z,5.07
2022-08-16T18:14:16.393Z,4.30
2022-08-16T18:16:46.264Z,4.93
2022-08-16T18:19:15.656Z,4.80
2022-08-16T18:22:02.057Z,4.88
2022-08-16T18:24:31.809Z,4.68
2022-08-16T18:27:25.008Z,4.63
2022-08-16T18:29:51.208Z,4.50
2022-08-16T18:32:21.947Z,4.15
2022-08-16T18:34:54.329Z,4.15
2022-08-16T18:37:23.173Z,4.38
2022-08-16T18:39:53.087Z,4.32
2022-08-16T18:42:22.506Z,3.78
2022-08-16T18:44:50.808Z,3.90
2022-08-16T18:47:19.125Z,4.90
2022-08-16T18:49:47.573Z,4.00
2022-08-16T18:52:25.464Z,4.00
2022-08-16T18:55:01.702Z,3.72
2022-08-16T18:57:31.556Z,3.92
2022-08-16T18:59:59.871Z,4.03
2022-08-16T19:02:56.828Z,3.83
2022-08-16T19:05:23.324Z,3.45
2022-08-16T19:07:52.711Z,3.33
2022-08-16T19:10:22.846Z,3.90
2022-08-16T19:12:51.213Z,3.95
2022-08-16T19:15:22.610Z,3.50
2022-08-16T19:17:50.968Z,3.78
2022-08-16T19:20:21.480Z,3.63
2022-08-16T19:23:10.265Z,3.80
2022-08-16T19:25:49.127Z,3.75
2022-08-16T19:28:49.360Z,1.60
2022-08-16T19:31:14.955Z,1.38
2022-08-16T19:33:53.395Z,1.25
2022-08-16T19:36:31.396Z,1.27
2022-08-16T19:39:05.213Z,1.52
2022-08-16T19:41:36.885Z,1.08
2022-08-16T19:44:06.792Z,0.90
2022-08-16T19:46:35.854Z,1.00
2022-08-16T19:49:05.981Z,1.40
2022-08-16T19:51:34.427Z,1.27
2022-08-16T19:54:02.914Z,1.58
2022-08-16T19:56:31.449Z,1.30
2022-08-16T19:59:18.590Z,1.23
2022-08-16T20:01:49.506Z,1.45
2022-08-16T20:04:18.125Z,1.70
2022-08-16T20:06:46.989Z,1.98
2022-08-16T20:09:15.900Z,3.47
2022-08-16T20:11:45.229Z,4.50
2022-08-16T20:14:24.616Z,4.80
2022-08-16T20:16:56.201Z,5.70
2022-08-16T20:19:25.034Z,4.97
2022-08-16T20:22:00.995Z,5.10
2022-08-16T20:24:35.293Z,4.53
2022-08-16T20:27:06.471Z,6.50
2022-08-16T20:29:37.746Z,5.57
2022-08-16T20:32:07.812Z,5.30
2022-08-16T20:34:37.111Z,5.90
2022-08-16T20:37:06.495Z,5.10
2022-08-16T20:39:35.068Z,5.93
2022-08-16T20:42:03.381Z,5.77
2022-08-16T20:44:32.156Z,5.77
2022-08-16T20:47:02.219Z,5.47
2022-08-16T20:49:30.708Z,6.00
2022-08-16T20:51:59.830Z,5.50
2022-08-16T20:54:29.582Z,5.67
2022-08-16T20:56:58.589Z,4.90
2022-08-16T20:59:27.120Z,4.93
2022-08-16T21:01:55.871Z,5.57
2022-08-16T21:04:29.179Z,5.00
2022-08-16T21:06:58.497Z,5.10
2022-08-16T21:09:29.629Z,4.80
2022-08-16T21:12:00.964Z,4.70
2022-08-16T21:14:29.790Z,5.40
2022-08-16T21:16:58.095Z,4.80
2022-08-16T21:19:27.765Z,5.07
2022-08-16T21:21:56.398Z,5.30
2022-08-16T21:24:26.491Z,5.13
2022-08-16T21:26:56.249Z,5.50
2022-08-16T21:29:42.744Z,5.57
2022-08-16T21:32:13.760Z,5.20
2022-08-16T21:34:43.661Z,5.63
2022-08-16T21:37:15.625Z,5.20
2022-08-16T21:39:45.094Z,5.97
2022-08-16T21:42:15.871Z,5.33
2022-08-16T21:44:45.313Z,5.23
2022-08-16T21:47:13.779Z,5.73
2022-08-16T21:49:43.507Z,5.67
2022-08-16T21:52:26.370Z,6.23
2022-08-16T21:54:58.219Z,6.17
2022-08-16T21:57:27.837Z,5.43
2022-08-16T22:00:08.288Z,5.33
2022-08-16T22:02:40.018Z,5.43
2022-08-16T22:05:11.627Z,5.00
2022-08-16T22:07:42.186Z,4.50
2022-08-16T22:11:05.190Z,4.30
2022-08-16T22:13:01.637Z,5.00
2022-08-16T22:15:30.569Z,4.50
2022-08-16T22:18:01.721Z,4.53
2022-08-16T22:20:31.637Z,4.90
2022-08-16T22:23:08.036Z,4.53
2022-08-16T22:25:36.805Z,4.87
2022-08-16T22:28:06.375Z,4.73
2022-08-16T22:30:35.077Z,5.13
2022-08-16T22:33:09.612Z,5.10
2022-08-16T22:35:44.280Z,4.83
2022-08-16T22:38:55.781Z,4.60
2022-08-16T22:41:05.470Z,4.83
2022-08-16T22:43:34.759Z,5.03
2022-08-16T22:46:03.083Z,4.03
2022-08-16T22:48:32.612Z,4.67
2022-08-16T22:51:09.156Z,4.50
2022-08-16T22:53:38.801Z,4.60
2022-08-16T22:56:07.462Z,4.97
2022-08-16T22:58:36.991Z,4.77
2022-08-16T23:01:08.785Z,4.50
2022-08-16T23:03:39.773Z,4.37
2022-08-16T23:06:12.244Z,4.73
2022-08-16T23:08:45.862Z,4.70
2022-08-16T23:11:21.179Z,5.20
2022-08-16T23:13:53.403Z,4.60
2022-08-16T23:16:32.430Z,5.23
2022-08-16T23:19:02.513Z,4.73
2022-08-16T23:21:32.829Z,4.60
2022-08-16T23:24:01.336Z,5.33
2022-08-16T23:26:46.980Z,5.13
2022-08-16T23:29:24.451Z,5.07
2022-08-16T23:32:00.250Z,5.23
2022-08-16T23:34:29.556Z,5.10
2022-08-16T23:36:59.320Z,5.70
2022-08-16T23:39:27.840Z,5.30
2022-08-16T23:41:56.180Z,5.40
2022-08-16T23:44:56.477Z,5.50
2022-08-16T23:47:13.313Z,4.43
2022-08-16T23:49:58.438Z,5.03
2022-08-16T23:52:45.192Z,5.10
2022-08-16T23:55:20.780Z,5.50
2022-08-16T23:57:49.691Z,5.73
